Time;durP1;ratioP1;P1;durP2;ratioP2;P2;SDS_P1;SDS_P2;PMS_P1;PMS_P2;Temp;Humidity;BMP_temperature;BMP_pressure;BME280_temperature;BME280_humidity;BME280_pressure;Samples;Min_cycle;Max_cycle;Signal;HPM_P1;HPM_P2
2022/12/31 00:00:35;;;;;;;13.02;2.88;;;10.70;99.90;;;;;;5093617;28;20515;-56
2022/12/31 00:03:01;;;;;;;16.90;2.80;;;10.90;99.90;;;;;;5094236;28;20408;-56
2022/12/31 00:05:30;;;;;;;15.32;2.65;;;10.90;99.90;;;;;;5095790;28;20090;-55
2022/12/31 00:07:57;;;;;;;17.40;3.03;;;10.90;99.90;;;;;;5094822;28;20044;-55
2022/12/31 00:10:23;;;;;;;20.40;4.30;;;10.90;99.90;;;;;;5093865;28;20038;-55
2022/12/31 00:12:48;;;;;;;14.82;3.65;;;10.80;99.90;;;;;;5094821;28;20040;-56
2022/12/31 00:15:14;;;;;;;16.25;3.30;;;11.00;99.90;;;;;;5094347;28;20182;-56
2022/12/31 00:17:40;;;;;;;16.30;3.30;;;11.00;99.90;;;;;;5092605;28;20567;-55
2022/12/31 00:20:06;;;;;;;18.38;4.00;;;12.00;99.90;;;;;;5093607;28;20133;-56
2022/12/31 00:22:32;;;;;;;20.00;4.20;;;10.70;99.90;;;;;;5092501;28;20046;-56
2022/12/31 00:24:57;;;;;;;19.85;3.45;;;10.90;99.90;;;;;;5093092;27;20450;-56
2022/12/31 00:27:23;;;;;;;20.92;3.63;;;11.00;99.90;;;;;;5092753;28;20067;-56
2022/12/31 00:29:49;;;;;;;19.98;4.22;;;11.00;99.90;;;;;;5092169;28;20043;-55
2022/12/31 00:32:15;;;;;;;21.38;4.47;;;11.10;99.90;;;;;;5092575;28;20089;-56
2022/12/31 00:34:40;;;;;;;22.48;4.10;;;11.00;99.90;;;;;;5093577;28;20035;-56
2022/12/31 00:37:06;;;;;;;19.23;4.28;;;11.00;99.90;;;;;;5092319;28;20051;-56
2022/12/31 00:39:32;;;;;;;21.40;3.78;;;10.80;99.90;;;;;;5097689;27;20040;-56
2022/12/31 00:41:57;;;;;;;27.17;4.20;;;11.00;99.90;;;;;;5097942;27;20051;-56
2022/12/31 00:44:23;;;;;;;19.65;4.47;;;11.10;99.90;;;;;;5098560;27;20946;-56
2022/12/31 00:46:49;;;;;;;25.38;4.32;;;10.80;99.90;;;;;;5096215;27;20047;-56
2022/12/31 00:49:15;;;;;;;18.60;3.60;;;11.00;99.90;;;;;;5097092;27;20044;-56
2022/12/31 00:51:41;;;;;;;27.13;4.03;;;10.70;99.90;;;;;;5096876;27;20040;-55
2022/12/31 00:54:07;;;;;;;24.33;4.28;;;10.90;99.90;;;;;;5096754;27;20042;-56
2022/12/31 00:56:33;;;;;;;26.90;4.50;;;10.90;99.90;;;;;;5096645;27;20047;-56
2022/12/31 00:58:59;;;;;;;20.02;3.85;;;10.90;99.90;;;;;;5095512;27;20061;-55
2022/12/31 01:01:24;;;;;;;24.08;4.18;;;11.00;99.90;;;;;;5096197;27;20116;-56
2022/12/31 01:03:53;;;;;;;24.50;4.15;;;10.90;99.90;;;;;;5096604;27;20495;-56
2022/12/31 01:06:19;;;;;;;27.35;5.85;;;10.80;99.90;;;;;;5096223;27;20044;-55
2022/12/31 01:08:47;;;;;;;19.08;3.80;;;10.90;99.90;;;;;;5096206;27;20055;-56
2022/12/31 01:11:20;;;;;;;19.88;4.13;;;11.00;99.90;;;;;;5095789;27;20910;-56
2022/12/31 01:14:05;;;;;;;23.08;4.07;;;10.90;99.90;;;;;;5095911;27;20138;-56
2022/12/31 01:16:40;;;;;;;18.02;3.60;;;10.90;99.90;;;;;;5097448;27;20051;-56
2022/12/31 01:19:18;;;;;;;17.75;4.40;;;10.90;99.90;;;;;;5097993;27;20146;-54
2022/12/31 01:21:44;;;;;;;21.80;5.00;;;10.80;99.90;;;;;;5098236;27;20047;-56
2022/12/31 01:24:11;;;;;;;22.40;5.05;;;10.80;99.90;;;;;;5095571;27;20046;-56
2022/12/31 01:26:37;;;;;;;20.73;3.38;;;10.70;99.90;;;;;;5095801;27;20046;-56
2022/12/31 01:29:04;;;;;;;16.63;3.47;;;10.90;99.90;;;;;;5098336;27;20109;-56
2022/12/31 01:31:32;;;;;;;14.35;4.20;;;10.90;99.90;;;;;;5096199;28;20062;-56
2022/12/31 01:33:57;;;;;;;16.73;4.15;;;10.90;99.90;;;;;;5096772;28;20637;-56
2022/12/31 01:36:26;;;;;;;22.02;4.95;;;10.70;99.90;;;;;;5097135;28;20043;-56
2022/12/31 01:38:53;;;;;;;18.27;4.50;;;11.00;99.90;;;;;;5096685;28;21333;-56
2022/12/31 01:41:22;;;;;;;22.25;4.18;;;10.70;99.90;;;;;;5096204;27;20438;-56
2022/12/31 01:43:55;;;;;;;16.88;4.15;;;10.90;99.90;;;;;;5099060;27;20035;-56
2022/12/31 01:46:48;;;;;;;17.50;4.53;;;10.90;99.90;;;;;;5096940;27;20049;-55
2022/12/31 01:49:22;;;;;;;19.23;4.25;;;10.80;99.90;;;;;;5094669;28;20043;-56
2022/12/31 01:51:57;;;;;;;15.15;4.05;;;10.70;99.90;;;;;;5097379;27;20436;-57
2022/12/31 01:54:25;;;;;;;17.42;4.30;;;10.90;99.90;;;;;;5095453;28;20518;-56
2022/12/31 01:56:54;;;;;;;14.65;4.03;;;10.80;99.90;;;;;;5095254;27;20368;-56
2022/12/31 01:59:22;;;;;;;16.73;4.88;;;10.90;99.90;;;;;;5094962;27;20044;-56
2022/12/31 02:01:54;;;;;;;16.50;4.18;;;10.90;99.90;;;;;;5095887;27;20469;-56
2022/12/31 02:04:23;;;;;;;16.38;5.13;;;10.90;99.90;;;;;;5095627;28;20111;-56
2022/12/31 02:07:06;;;;;;;13.43;3.97;;;10.90;99.90;;;;;;5096500;27;20114;-56
2022/12/31 02:09:35;;;;;;;16.85;4.63;;;10.80;99.90;;;;;;5094626;28;20419;-57
2022/12/31 02:12:00;;;;;;;14.02;4.03;;;10.90;99.90;;;;;;5094662;27;20138;-56
2022/12/31 02:14:30;;;;;;;15.65;4.40;;;11.00;99.90;;;;;;5093016;27;20043;-56
2022/12/31 02:16:59;;;;;;;11.15;4.10;;;10.90;99.90;;;;;;5064519;27;20047;-56
2022/12/31 02:19:30;;;;;;;13.30;4.22;;;10.90;99.90;;;;;;5095115;27;20202;-56
2022/12/31 02:21:59;;;;;;;14.93;3.67;;;10.90;99.90;;;;;;5095342;27;20146;-56
2022/12/31 02:24:52;;;;;;;12.63;3.65;;;11.00;99.90;;;;;;5095062;27;20134;-57
2022/12/31 02:27:57;;;;;;;13.52;3.72;;;11.10;99.90;;;;;;5095492;27;20048;-56
2022/12/31 02:30:25;;;;;;;14.30;3.80;;;10.90;99.90;;;;;;5093677;27;20140;-56
2022/12/31 02:33:02;;;;;;;14.30;3.58;;;10.90;99.90;;;;;;5094784;27;20039;-55
2022/12/31 02:35:52;;;;;;;15.60;3.70;;;11.00;99.90;;;;;;5093603;27;20171;-56
2022/12/31 02:38:30;;;;;;;12.38;3.80;;;10.90;99.90;;;;;;5094778;28;20077;-56
2022/12/31 02:40:56;;;;;;;10.60;3.10;;;11.10;99.90;;;;;;5095118;27;20039;-56
2022/12/31 02:43:23;;;;;;;11.75;3.88;;;11.10;99.90;;;;;;5094296;28;20046;-56
2022/12/31 02:46:13;;;;;;;14.50;3.83;;;10.90;99.90;;;;;;5094344;27;20051;-56
2022/12/31 02:48:42;;;;;;;10.90;3.22;;;11.00;99.90;;;;;;5094604;27;20050;-56
2022/12/31 02:51:24;;;;;;;10.25;3.28;;;10.90;99.90;;;;;;5094630;28;20461;-56
2022/12/31 02:54:08;;;;;;;11.10;2.80;;;10.90;99.90;;;;;;5094954;28;20238;-56
2022/12/31 02:57:12;;;;;;;11.77;3.65;;;11.00;99.90;;;;;;5095450;27;20043;-56
2022/12/31 03:02:46;;;;;;;9.82;2.60;;;10.90;99.90;;;;;;5095797;27;20135;-56
2022/12/31 03:05:14;;;;;;;10.52;2.50;;;10.80;99.90;;;;;;5095758;27;20471;-56
2022/12/31 03:07:41;;;;;;;8.93;2.03;;;10.80;99.90;;;;;;5095661;28;20504;-56
2022/12/31 03:10:07;;;;;;;7.05;1.98;;;10.80;99.90;;;;;;5095575;27;20963;-57
2022/12/31 03:12:46;;;;;;;8.70;2.33;;;12.30;99.90;;;;;;5096123;27;20070;-56
2022/12/31 03:15:19;;;;;;;9.05;1.88;;;10.70;99.90;;;;;;5095871;27;20044;-56
2022/12/31 03:18:08;;;;;;;8.57;1.65;;;10.80;99.90;;;;;;5094073;28;20538;-56
2022/12/31 03:23:34;;;;;;;7.20;1.70;;;12.80;99.90;;;;;;5094586;27;20064;-56
2022/12/31 03:26:01;;;;;;;9.88;1.75;;;10.70;99.90;;;;;;5093809;27;20292;-56
2022/12/31 03:28:29;;;;;;;7.63;1.40;;;10.70;99.90;;;;;;5094613;27;20044;-56
2022/12/31 03:30:57;;;;;;;4.95;1.10;;;10.70;99.90;;;;;;5093182;27;20074;-56
2022/12/31 03:33:25;;;;;;;11.10;1.45;;;10.50;99.90;;;;;;5092885;28;20036;-56
2022/12/31 03:35:52;;;;;;;10.02;1.58;;;10.60;99.90;;;;;;5093367;27;20050;-56
2022/12/31 03:38:18;;;;;;;7.65;1.30;;;10.50;99.90;;;;;;5093693;27;20073;-56
2022/12/31 03:40:46;;;;;;;11.32;1.50;;;10.50;99.90;;;;;;5094223;28;20039;-55
2022/12/31 03:43:12;;;;;;;5.88;1.23;;;10.60;99.90;;;;;;5093287;28;20054;-56
2022/12/31 03:45:38;;;;;;;10.40;1.55;;;10.30;99.90;;;;;;5093439;28;20039;-57
2022/12/31 03:48:06;;;;;;;6.30;1.00;;;10.50;99.90;;;;;;5093203;27;20047;-57
2022/12/31 03:50:32;;;;;;;4.00;0.90;;;10.40;99.90;;;;;;5093246;28;20739;-57
2022/12/31 03:52:58;;;;;;;6.30;1.38;;;10.30;99.90;;;;;;5094454;27;20561;-56
2022/12/31 03:55:24;;;;;;;9.40;1.38;;;10.50;99.90;;;;;;5091817;28;20047;-56
2022/12/31 03:57:50;;;;;;;6.10;0.82;;;10.40;99.90;;;;;;5093069;28;20081;-56
2022/12/31 04:00:18;;;;;;;8.05;1.25;;;10.40;99.90;;;;;;5092232;28;20303;-56
2022/12/31 04:02:46;;;;;;;4.10;0.95;;;10.40;99.90;;;;;;5093539;27;20058;-55
2022/12/31 04:05:12;;;;;;;6.43;0.82;;;10.70;99.90;;;;;;5090845;27;20552;-56
2022/12/31 04:07:38;;;;;;;7.70;1.42;;;10.40;99.90;;;;;;5094617;28;20051;-56
2022/12/31 04:10:07;;;;;;;5.60;1.40;;;10.50;99.90;;;;;;5095359;27;20404;-54
2022/12/31 04:12:33;;;;;;;7.30;1.17;;;10.60;99.90;;;;;;5093562;28;20056;-57
2022/12/31 04:14:58;;;;;;;4.63;0.90;;;10.40;99.90;;;;;;5094321;28;20388;-56
2022/12/31 04:17:24;;;;;;;7.93;1.33;;;10.50;99.90;;;;;;5094560;28;20118;-56
2022/12/31 04:19:50;;;;;;;6.15;1.10;;;10.50;99.90;;;;;;5095312;28;20044;-56
2022/12/31 04:22:16;;;;;;;6.13;1.15;;;10.40;99.90;;;;;;5094612;28;20552;-55
2022/12/31 04:24:42;;;;;;;8.13;1.65;;;10.40;99.90;;;;;;5094705;28;20126;-56
2022/12/31 04:27:09;;;;;;;8.88;1.65;;;10.40;99.90;;;;;;5093729;27;20054;-56
2022/12/31 04:29:35;;;;;;;6.50;1.38;;;10.40;99.90;;;;;;5093186;28;20036;-56
2022/12/31 04:32:01;;;;;;;7.68;1.23;;;10.40;99.90;;;;;;5092592;28;20506;-55
2022/12/31 04:34:27;;;;;;;10.07;1.80;;;10.50;99.90;;;;;;5092990;28;20054;-56
2022/12/31 04:36:53;;;;;;;9.23;1.52;;;10.40;99.90;;;;;;5092833;27;20031;-56
2022/12/31 04:39:19;;;;;;;9.85;1.80;;;10.50;99.90;;;;;;5093750;28;20041;-56
2022/12/31 04:41:44;;;;;;;10.10;1.88;;;10.40;99.90;;;;;;5093552;28;20074;-56
2022/12/31 04:44:11;;;;;;;6.35;1.80;;;10.20;99.90;;;;;;5093134;28;20048;-56
2022/12/31 04:46:37;;;;;;;5.97;1.65;;;10.40;99.90;;;;;;5093140;28;20052;-56
2022/12/31 04:49:02;;;;;;;12.07;2.60;;;10.40;99.90;;;;;;5092814;28;20043;-55
2022/12/31 04:51:30;;;;;;;9.00;2.33;;;10.40;99.90;;;;;;5092307;28;20105;-56
2022/12/31 04:53:56;;;;;;;13.95;2.80;;;10.50;99.90;;;;;;5092746;28;20340;-56
2022/12/31 04:56:22;;;;;;;10.23;2.35;;;10.20;99.90;;;;;;5093431;28;20051;-54
2022/12/31 04:58:48;;;;;;;5.85;2.40;;;10.50;99.90;;;;;;5095134;27;20039;-55
2022/12/31 05:01:14;;;;;;;9.80;2.60;;;10.40;99.90;;;;;;5092583;28;20318;-55
2022/12/31 05:03:40;;;;;;;7.45;2.50;;;10.60;99.90;;;;;;5091933;28;20495;-54
2022/12/31 05:06:11;;;;;;;13.07;2.72;;;10.20;99.90;;;;;;5093583;28;20488;-55
2022/12/31 05:08:37;;;;;;;10.77;2.57;;;10.40;99.90;;;;;;5092887;28;20048;-55
2022/12/31 05:11:03;;;;;;;13.18;2.85;;;10.50;99.90;;;;;;5094117;28;20367;-55
2022/12/31 05:13:28;;;;;;;13.07;3.03;;;10.50;99.90;;;;;;5092405;28;20462;-55
2022/12/31 05:15:54;;;;;;;9.52;2.75;;;10.40;99.90;;;;;;5093025;28;20400;-53
2022/12/31 05:18:20;;;;;;;9.98;3.05;;;10.40;99.90;;;;;;5092735;28;20084;-55
2022/12/31 05:20:47;;;;;;;13.60;3.10;;;10.40;99.90;;;;;;5093018;28;20142;-54
2022/12/31 05:23:14;;;;;;;8.40;2.75;;;10.30;99.90;;;;;;5093659;28;20028;-55
2022/12/31 05:25:42;;;;;;;12.15;2.80;;;10.40;99.90;;;;;;5097862;27;20104;-54
2022/12/31 05:28:08;;;;;;;13.95;2.63;;;12.00;99.90;;;;;;5096732;27;20036;-55
2022/12/31 05:30:33;;;;;;;13.20;2.85;;;10.30;99.90;;;;;;5096107;28;20436;-55
2022/12/31 05:32:59;;;;;;;9.13;2.53;;;10.00;99.90;;;;;;5096724;27;20083;-54
2022/12/31 05:35:25;;;;;;;10.23;2.47;;;10.20;99.90;;;;;;5098438;27;20185;-54
2022/12/31 05:37:51;;;;;;;10.60;2.85;;;10.20;99.90;;;;;;5098521;27;20040;-53
2022/12/31 05:40:17;;;;;;;11.98;2.80;;;10.30;99.90;;;;;;5098068;27;20078;-55
2022/12/31 05:42:42;;;;;;;7.97;2.38;;;10.30;99.90;;;;;;5099048;27;20054;-55
2022/12/31 05:45:12;;;;;;;12.50;3.00;;;10.20;99.90;;;;;;5100019;27;20100;-55
2022/12/31 05:47:39;;;;;;;11.90;2.72;;;10.30;99.90;;;;;;5098349;27;20708;-55
2022/12/31 05:50:06;;;;;;;7.68;2.60;;;10.40;99.90;;;;;;5098031;27;20039;-54
2022/12/31 05:52:32;;;;;;;11.98;2.58;;;10.30;99.90;;;;;;5096490;27;20032;-55
2022/12/31 05:54:58;;;;;;;13.23;2.60;;;10.30;99.90;;;;;;5098454;27;20117;-55
2022/12/31 05:57:23;;;;;;;10.75;2.72;;;10.40;99.90;;;;;;5096427;27;20365;-53
2022/12/31 05:59:52;;;;;;;11.07;3.15;;;10.30;99.90;;;;;;5097502;27;20122;-54
2022/12/31 06:02:18;;;;;;;9.77;3.40;;;10.30;99.90;;;;;;5094921;27;20412;-54
2022/12/31 06:04:44;;;;;;;11.00;3.63;;;10.10;99.90;;;;;;5095514;27;20128;-53
2022/12/31 06:07:10;;;;;;;9.80;3.70;;;10.30;99.90;;;;;;5094896;27;20035;-55
2022/12/31 06:09:35;;;;;;;7.43;3.38;;;10.30;99.90;;;;;;5096167;27;20074;-55
2022/12/31 06:12:01;;;;;;;7.47;3.10;;;10.50;99.90;;;;;;5096425;27;20070;-54
2022/12/31 06:14:27;;;;;;;6.80;2.42;;;10.20;99.90;;;;;;5097319;27;20344;-54
2022/12/31 06:16:53;;;;;;;8.65;2.33;;;10.40;99.90;;;;;;5095506;27;20040;-54
2022/12/31 06:19:19;;;;;;;8.57;1.95;;;10.40;99.90;;;;;;5096046;27;20035;-55
2022/12/31 06:21:44;;;;;;;5.63;1.63;;;10.10;99.90;;;;;;5095505;27;20157;-54
2022/12/31 06:24:10;;;;;;;5.10;1.60;;;10.40;99.90;;;;;;5095733;27;20075;-55
2022/12/31 06:26:36;;;;;;;8.35;2.17;;;9.90;99.90;;;;;;5095545;28;20071;-55
2022/12/31 06:29:02;;;;;;;5.63;1.65;;;10.10;99.90;;;;;;5096137;27;20039;-54
2022/12/31 06:31:28;;;;;;;7.28;2.28;;;7.90;99.90;;;;;;5094302;27;20553;-54
2022/12/31 06:33:54;;;;;;;6.68;1.98;;;10.10;99.90;;;;;;5096182;27;20034;-54
2022/12/31 06:36:21;;;;;;;5.93;1.95;;;9.00;99.90;;;;;;5095145;27;20035;-55
2022/12/31 06:38:47;;;;;;;8.48;2.55;;;9.90;99.90;;;;;;5095049;27;20039;-55
2022/12/31 06:41:15;;;;;;;8.07;3.13;;;10.00;99.90;;;;;;5094876;28;20093;-55
2022/12/31 06:43:42;;;;;;;7.80;3.80;;;9.80;99.90;;;;;;5094763;27;20062;-52
2022/12/31 06:46:10;;;;;;;9.15;4.82;;;10.00;99.90;;;;;;5096811;28;20070;-55
2022/12/31 06:48:36;;;;;;;10.27;5.35;;;10.00;99.90;;;;;;5097328;27;20511;-54
2022/12/31 06:51:07;;;;;;;9.98;5.78;;;10.00;99.90;;;;;;5096055;27;20671;-55
2022/12/31 06:53:33;;;;;;;10.20;5.97;;;10.00;99.90;;;;;;5096160;27;20089;-54
2022/12/31 06:56:27;;;;;;;11.25;5.50;;;10.30;99.90;;;;;;5077628;27;20044;-55
2022/12/31 06:58:54;;;;;;;8.40;5.18;;;10.00;99.90;;;;;;5094201;28;20975;-55
2022/12/31 07:01:38;;;;;;;8.85;4.47;;;10.00;99.90;;;;;;5095828;27;20239;-55
2022/12/31 07:04:16;;;;;;;8.35;4.70;;;10.00;99.90;;;;;;5095460;28;20107;-55
2022/12/31 07:07:07;;;;;;;9.75;5.13;;;10.10;99.90;;;;;;5094590;28;20760;-54
2022/12/31 07:09:54;;;;;;;7.50;4.03;;;10.10;99.90;;;;;;5092240;28;20520;-55
2022/12/31 07:12:43;;;;;;;6.80;3.42;;;10.10;99.90;;;;;;5094959;27;20507;-55
2022/12/31 07:15:13;;;;;;;9.93;4.28;;;10.10;99.90;;;;;;5094949;28;20333;-54
2022/12/31 07:18:04;;;;;;;9.50;3.80;;;10.20;99.90;;;;;;5093839;27;20031;-55
2022/12/31 07:20:30;;;;;;;7.15;3.58;;;10.00;99.90;;;;;;5093276;27;20046;-55
2022/12/31 07:22:56;;;;;;;6.28;3.90;;;10.10;99.90;;;;;;5094115;27;20035;-55
2022/12/31 07:25:22;;;;;;;9.25;4.03;;;9.90;99.90;;;;;;5093437;27;22155;-55
2022/12/31 07:28:04;;;;;;;9.30;3.88;;;9.80;99.90;;;;;;5094728;27;20036;-54
2022/12/31 07:30:45;;;;;;;8.20;3.50;;;9.90;99.90;;;;;;5093463;28;20371;-55
2022/12/31 07:33:37;;;;;;;5.47;3.72;;;10.00;99.90;;;;;;5093973;27;20039;-55
2022/12/31 07:36:22;;;;;;;;;;;9.70;99.90;;;;;;5093646;27;20044;-55
2022/12/31 07:39:03;;;;;;;8.50;3.72;;;9.80;99.90;;;;;;5094608;27;19930;-55
2022/12/31 07:41:51;;;;;;;7.47;4.10;;;9.90;99.90;;;;;;5093484;27;20047;-55
2022/12/31 07:44:39;;;;;;;6.78;3.80;;;9.80;99.90;;;;;;5093772;28;20531;-55
2022/12/31 07:47:19;;;;;;;6.65;3.75;;;10.00;99.90;;;;;;5093021;28;20463;-55
2022/12/31 07:49:45;;;;;;;6.80;3.58;;;9.90;99.90;;;;;;5092321;27;20036;-53
2022/12/31 07:52:11;;;;;;;7.28;3.58;;;11.30;99.90;;;;;;5093375;28;20047;-55
2022/12/31 07:54:37;;;;;;;6.10;3.75;;;9.80;99.90;;;;;;5093306;28;20736;-54
2022/12/31 07:57:03;;;;;;;5.20;3.58;;;10.00;99.90;;;;;;5094184;27;20067;-54
2022/12/31 08:00:00;;;;;;;8.30;4.18;;;10.60;99.90;;;;;;5093295;27;20032;-55
2022/12/31 08:02:57;;;;;;;6.60;4.50;;;9.90;99.90;;;;;;5092923;27;20530;-56
2022/12/31 08:05:28;;;;;;;7.85;4.85;;;10.10;99.90;;;;;;5091897;28;20074;-55
2022/12/31 08:08:29;;;;;;;10.00;5.30;;;9.90;99.90;;;;;;5092883;28;20047;-55
2022/12/31 08:11:26;;;;;;;8.45;5.35;;;10.00;99.90;;;;;;5093931;28;20043;-56
2022/12/31 08:13:55;;;;;;;8.50;6.13;;;10.20;99.90;;;;;;5092669;28;20121;-55
2022/12/31 08:16:21;;;;;;;8.70;6.25;;;9.80;99.90;;;;;;5093826;28;20465;-55
2022/12/31 08:18:47;;;;;;;9.27;6.75;;;10.00;99.90;;;;;;5095111;28;20049;-55
2022/12/31 08:21:34;;;;;;;10.52;6.05;;;10.00;99.90;;;;;;5094083;28;20062;-55
2022/12/31 08:24:22;;;;;;;6.45;5.20;;;10.10;99.90;;;;;;5094571;28;20031;-55
2022/12/31 08:26:51;;;;;;;8.50;4.93;;;10.10;99.90;;;;;;5094658;28;20051;-55
2022/12/31 08:29:33;;;;;;;7.13;4.30;;;10.00;99.90;;;;;;5094090;28;20043;-56
2022/12/31 08:32:21;;;;;;;6.40;4.05;;;10.00;99.90;;;;;;5093319;28;20220;-55
2022/12/31 08:35:30;;;;;;;5.65;3.85;;;10.10;99.90;;;;;;5093219;28;20093;-55
2022/12/31 08:38:20;;;;;;;5.97;3.80;;;10.30;99.90;;;;;;5080670;28;20539;-55
2022/12/31 08:40:55;;;;;;;8.00;4.43;;;10.40;99.90;;;;;;5094690;28;20237;-55
2022/12/31 08:43:46;;;;;;;6.10;4.68;;;10.30;99.90;;;;;;5093311;28;20052;-55
2022/12/31 08:46:24;;;;;;;6.15;4.95;;;10.30;99.90;;;;;;5093787;28;20040;-55
2022/12/31 08:48:50;;;;;;;6.90;5.57;;;10.50;99.90;;;;;;5095498;28;20040;-55
2022/12/31 08:51:21;;;;;;;7.43;5.63;;;10.50;99.90;;;;;;5093946;28;20046;-54
2022/12/31 08:53:47;;;;;;;6.50;5.55;;;10.80;99.90;;;;;;5092913;28;20036;-56
2022/12/31 08:56:54;;;;;;;7.45;5.72;;;10.70;99.90;;;;;;5092689;28;20510;-56
2022/12/31 08:59:29;;;;;;;6.47;5.07;;;10.80;99.90;;;;;;5036467;28;20077;-56
2022/12/31 09:02:21;;;;;;;6.43;4.72;;;10.90;99.90;;;;;;5095948;27;20079;-55
2022/12/31 09:05:15;;;;;;;5.90;4.88;;;11.20;99.90;;;;;;5097129;27;20098;-56
2022/12/31 09:07:57;;;;;;;7.93;5.32;;;11.10;99.90;;;;;;5095868;27;20071;-55
2022/12/31 09:10:33;;;;;;;6.30;4.72;;;11.20;99.90;;;;;;5096378;27;20500;-54
2022/12/31 09:13:19;;;;;;;5.93;5.13;;;11.00;99.90;;;;;;5096073;28;20055;-55
2022/12/31 09:16:03;;;;;;;6.13;4.70;;;11.20;99.90;;;;;;5095965;27;20571;-56
2022/12/31 09:18:33;;;;;;;6.13;4.28;;;11.30;99.90;;;;;;5095066;27;20043;-55
2022/12/31 09:20:59;;;;;;;8.40;4.90;;;11.50;99.90;;;;;;5127667;27;20043;-56
2022/12/31 09:23:25;;;;;;;7.03;4.45;;;11.50;99.90;;;;;;5096583;27;20055;-56
2022/12/31 09:26:09;;;;;;;6.88;3.80;;;11.50;99.90;;;;;;5094627;27;20046;-57
2022/12/31 09:28:59;;;;;;;6.30;2.85;;;11.40;99.90;;;;;;5095812;27;20047;-56
2022/12/31 09:31:44;;;;;;;10.93;4.22;;;11.60;99.90;;;;;;5094598;28;20047;-55
2022/12/31 09:34:25;;;;;;;7.10;2.65;;;11.50;99.90;;;;;;5095695;27;20094;-55
2022/12/31 09:37:13;;;;;;;4.97;2.55;;;12.40;99.90;;;;;;5095581;27;20092;-56
2022/12/31 09:39:42;;;;;;;8.55;2.40;;;11.70;99.90;;;;;;5096566;27;20047;-56
2022/12/31 09:42:26;;;;;;;4.90;1.88;;;11.80;99.90;;;;;;5096439;27;20039;-56
2022/12/31 09:45:01;;;;;;;4.45;1.48;;;11.90;99.90;;;;;;5095948;27;20074;-56
2022/12/31 09:47:41;;;;;;;7.47;2.25;;;12.00;99.90;;;;;;5097242;27;20143;-56
2022/12/31 09:50:25;;;;;;;5.07;1.50;;;12.00;99.90;;;;;;5096357;27;20043;-56
2022/12/31 09:52:57;;;;;;;6.50;2.03;;;12.20;99.90;;;;;;5097650;27;20571;-58
2022/12/31 09:55:50;;;;;;;4.05;1.48;;;11.90;99.90;;;;;;5096498;27;20046;-56
2022/12/31 09:58:25;;;;;;;5.05;1.48;;;12.10;99.90;;;;;;5096595;27;20445;-56
2022/12/31 10:01:16;;;;;;;4.93;1.30;;;10.00;99.90;;;;;;5095838;27;20043;-56
2022/12/31 10:04:05;;;;;;;4.78;1.20;;;12.20;99.90;;;;;;5097088;27;20071;-56
2022/12/31 10:07:08;;;;;;;4.82;1.00;;;12.20;99.90;;;;;;5096004;27;20059;-56
2022/12/31 10:09:44;;;;;;;4.38;0.90;;;12.30;99.90;;;;;;5096452;27;20082;-56
2022/12/31 10:12:34;;;;;;;3.17;1.10;;;12.20;99.90;;;;;;5095220;28;20073;-56
2022/12/31 10:15:34;;;;;;;6.25;1.20;;;12.20;99.90;;;;;;5096342;27;20050;-56
2022/12/31 10:18:27;;;;;;;7.65;1.33;;;12.40;99.90;;;;;;5097726;27;20047;-56
2022/12/31 10:21:26;;;;;;;8.50;1.23;;;12.30;99.90;;;;;;5095300;27;20534;-56
2022/12/31 10:24:26;;;;;;;9.07;1.20;;;12.30;99.90;;;;;;5095801;27;20043;-56
2022/12/31 10:27:02;;;;;;;7.90;1.52;;;12.40;99.90;;;;;;5095499;27;20063;-57
2022/12/31 10:30:15;;;;;;;9.60;1.38;;;12.30;99.90;;;;;;5095423;27;20574;-55
2022/12/31 10:33:06;;;;;;;7.28;3.08;;;12.50;99.90;;;;;;5058786;27;20047;-56
2022/12/31 10:35:49;;;;;;;17.35;9.02;;;12.40;99.90;;;;;;5096018;27;20050;-56
2022/12/31 10:38:34;;;;;;;9.02;2.30;;;12.30;99.90;;;;;;5095301;27;20225;-56
2022/12/31 10:41:21;;;;;;;11.07;2.35;;;12.60;99.90;;;;;;5095520;27;20041;-56
2022/12/31 10:44:24;;;;;;;11.07;3.78;;;12.50;99.90;;;;;;5094421;28;20536;-56
2022/12/31 10:46:53;;;;;;;10.52;2.67;;;12.60;99.90;;;;;;5095483;27;20042;-56
2022/12/31 10:49:18;;;;;;;9.93;2.15;;;12.70;99.90;;;;;;5095264;28;20126;-56
2022/12/31 10:52:03;;;;;;;10.23;2.17;;;12.40;99.90;;;;;;5094481;27;20122;-56
2022/12/31 10:54:47;;;;;;;9.32;2.30;;;12.60;99.90;;;;;;5094904;27;20036;-56
2022/12/31 10:57:22;;;;;;;10.68;2.42;;;12.90;99.90;;;;;;5094712;27;20047;-56
2022/12/31 11:00:12;;;;;;;10.85;1.77;;;12.70;99.90;;;;;;5094412;27;20036;-56
2022/12/31 11:03:14;;;;;;;9.00;1.63;;;12.70;99.90;;;;;;5093912;28;20043;-56
2022/12/31 11:06:10;;;;;;;12.82;2.70;;;12.60;99.90;;;;;;5051474;28;20040;-56
2022/12/31 11:08:58;;;;;;;11.23;2.83;;;12.80;99.90;;;;;;5095557;27;20144;-56
2022/12/31 11:12:01;;;;;;;14.48;2.22;;;12.90;99.90;;;;;;5095289;27;20104;-56
2022/12/31 11:15:11;;;;;;;13.98;2.20;;;12.80;99.90;;;;;;5096443;27;20441;-57
2022/12/31 11:17:59;;;;;;;11.55;1.80;;;12.90;99.90;;;;;;5097873;27;20059;-56
2022/12/31 11:20:31;;;;;;;12.63;2.92;;;13.10;99.90;;;;;;5095462;27;20043;-55
2022/12/31 11:23:29;;;;;;;13.32;2.10;;;13.10;99.90;;;;;;5095452;28;20047;-56
2022/12/31 11:26:11;;;;;;;17.67;2.50;;;13.00;99.90;;;;;;5092750;27;20065;-56
2022/12/31 11:29:17;;;;;;;16.40;2.37;;;13.00;99.90;;;;;;5096952;27;20062;-56
2022/12/31 11:32:03;;;;;;;21.25;3.35;;;13.00;99.90;;;;;;5094893;27;20524;-56
2022/12/31 11:34:40;;;;;;;11.07;2.22;;;13.10;99.90;;;;;;5094181;28;20050;-56
2022/12/31 11:37:31;;;;;;;11.45;2.58;;;13.10;99.90;;;;;;5093307;27;20040;-56
2022/12/31 11:40:18;;;;;;;12.43;2.03;;;12.90;99.90;;;;;;5093828;27;20085;-56
2022/12/31 11:43:12;;;;;;;12.45;2.80;;;13.00;99.90;;;;;;5092342;28;20035;-56
2022/12/31 11:45:50;;;;;;;13.13;2.13;;;13.00;99.90;;;;;;5093752;27;20054;-56
2022/12/31 11:48:48;;;;;;;14.75;2.83;;;13.10;99.90;;;;;;5093905;28;20467;-56
2022/12/31 11:51:22;;;;;;;14.43;2.25;;;12.90;99.90;;;;;;5091699;27;20123;-56
2022/12/31 11:54:09;;;;;;;14.60;2.10;;;13.10;99.90;;;;;;5092301;27;20051;-55
2022/12/31 11:56:40;;;;;;;11.80;2.28;;;13.10;99.90;;;;;;5093152;28;20043;-56
2022/12/31 11:59:13;;;;;;;15.00;2.00;;;12.90;99.90;;;;;;5092216;27;20039;-56
2022/12/31 12:01:59;;;;;;;10.07;1.92;;;15.10;99.90;;;;;;5091610;27;20099;-56
2022/12/31 12:04:25;;;;;;;8.10;2.28;;;13.00;99.90;;;;;;5092973;28;20092;-56
2022/12/31 12:06:52;;;;;;;9.73;1.80;;;12.80;99.90;;;;;;5092696;27;20040;-55
2022/12/31 12:09:36;;;;;;;8.60;1.70;;;12.80;99.90;;;;;;5092670;28;20526;-56
2022/12/31 12:12:05;;;;;;;9.35;1.70;;;12.90;99.90;;;;;;5090033;28;20101;-56
2022/12/31 12:14:36;;;;;;;11.68;2.20;;;12.70;99.90;;;;;;5092434;28;20047;-56
2022/12/31 12:17:08;;;;;;;14.85;3.10;;;12.80;99.90;;;;;;5092637;28;20092;-56
2022/12/31 12:19:40;;;;;;;11.20;2.45;;;12.90;99.90;;;;;;5091747;28;20051;-56
2022/12/31 12:22:18;;;;;;;16.02;2.95;;;13.00;99.90;;;;;;5093394;28;20066;-55
2022/12/31 12:25:02;;;;;;;14.73;3.10;;;14.40;99.90;;;;;;5092949;28;20606;-56
2022/12/31 12:27:30;;;;;;;11.90;2.80;;;14.90;99.90;;;;;;5092795;28;20120;-56
2022/12/31 12:29:56;;;;;;;15.82;2.50;;;12.70;99.90;;;;;;5093458;28;20047;-56
2022/12/31 12:32:24;;;;;;;14.90;3.30;;;12.60;99.90;;;;;;5093104;28;20036;-56
2022/12/31 12:34:50;;;;;;;14.30;2.75;;;12.80;99.90;;;;;;5095799;27;20623;-56
2022/12/31 12:37:31;;;;;;;17.90;3.63;;;12.70;99.90;;;;;;5097110;27;20032;-56
2022/12/31 12:40:18;;;;;;;16.20;3.85;;;12.60;99.90;;;;;;5095737;28;20055;-56
2022/12/31 12:42:48;;;;;;;15.35;2.78;;;12.80;99.90;;;;;;5097111;28;21077;-56
2022/12/31 12:45:20;;;;;;;13.95;2.90;;;13.50;99.90;;;;;;5097029;28;20039;-56
2022/12/31 12:47:49;;;;;;;15.45;3.78;;;12.80;99.90;;;;;;5098692;27;20063;-56
2022/12/31 12:50:17;;;;;;;14.65;2.90;;;12.70;99.90;;;;;;5096564;28;20545;-56
2022/12/31 12:53:09;;;;;;;15.35;3.25;;;12.90;99.90;;;;;;5097557;27;20173;-56
2022/12/31 12:55:40;;;;;;;13.15;2.80;;;12.50;99.90;;;;;;5098169;27;20405;-56
2022/12/31 12:58:11;;;;;;;11.50;3.25;;;12.70;99.90;;;;;;5096601;27;20069;-56
2022/12/31 13:00:45;;;;;;;13.48;2.75;;;12.70;99.90;;;;;;5096465;27;20358;-55
2022/12/31 13:03:27;;;;;;;15.20;3.17;;;12.80;99.90;;;;;;5096906;27;20073;-56
2022/12/31 13:06:18;;;;;;;12.05;3.45;;;12.80;99.90;;;;;;5097634;27;20108;-56
2022/12/31 13:09:24;;;;;;;16.48;2.80;;;12.50;99.90;;;;;;5097566;27;21019;-56
2022/12/31 13:12:19;;;;;;;14.00;2.80;;;12.80;99.90;;;;;;5097020;27;20086;-56
2022/12/31 13:14:57;;;;;;;15.73;4.07;;;12.60;99.90;;;;;;5095450;27;20400;-56
2022/12/31 13:17:50;;;;;;;13.43;2.70;;;12.70;99.90;;;;;;5096736;27;20039;-56
2022/12/31 13:20:30;;;;;;;14.35;3.30;;;12.70;99.90;;;;;;5097148;27;20039;-56
2022/12/31 13:23:03;;;;;;;17.75;3.08;;;12.40;99.90;;;;;;5095734;27;20150;-55
2022/12/31 13:25:35;;;;;;;;;;;12.50;99.90;;;;;;5096789;27;20350;-55
2022/12/31 13:28:06;;;;;;;15.25;3.08;;;12.60;99.90;;;;;;5095722;27;20425;-56